Time;durP1;ratioP1;P1;durP2;ratioP2;P2;SDS_P1;SDS_P2;PMS_P1;PMS_P2;Temp;Humidity;BMP_temperature;BMP_pressure;BME280_temperature;BME280_humidity;BME280_pressure;Samples;Min_cycle;Max_cycle;Signal;HPM_P1;HPM_P2
2021/01/24 00:00:49;;;;;;;;;;;;;;;22.95;42.53;99164.84;2067773;28;4858;-34
2021/01/24 00:01:50;;;;;;;;;;;;;;;22.98;42.60;99166.09;2065179;28;4005;-35
2021/01/24 00:02:51;;;;;;;;;;;;;;;23.02;42.51;99176.28;2067605;28;4036;-35
2021/01/24 00:03:52;;;;;;;;;;;;;;;22.99;42.48;99165.72;2066939;28;3900;-35
2021/01/24 00:04:52;;;;;;;;;;;;;;;22.98;42.44;99171.81;2065470;28;4073;-34
2021/01/24 00:05:53;;;;;;;;;;;;;;;22.96;42.62;99168.53;2068891;28;4055;-35
2021/01/24 00:06:54;;;;;;;;;;;;;;;22.99;42.56;99173.44;2066658;28;3889;-34
2021/01/24 00:07:54;;;;;;;;;;;;;;;22.99;42.69;99171.41;2068472;28;4082;-35
2021/01/24 00:08:55;;;;;;;;;;;;;;;22.99;42.74;99168.56;2068221;28;4037;-35
2021/01/24 00:09:56;;;;;;;;;;;;;;;23.02;42.65;99173.44;2065812;28;4088;-36
2021/01/24 00:10:57;;;;;;;;;;;;;;;23.01;42.55;99171.00;2067425;28;3919;-34
2021/01/24 00:11:57;;;;;;;;;;;;;;;23.01;42.59;99173.84;2068724;28;3874;-35
2021/01/24 00:12:58;;;;;;;;;;;;;;;22.98;42.87;99177.50;2066695;28;4120;-36
2021/01/24 00:13:59;;;;;;;;;;;;;;;22.98;42.79;99178.31;2067506;28;4079;-34
2021/01/24 00:14:59;;;;;;;;;;;;;;;22.95;42.91;99178.28;2065526;28;4053;-35
2021/01/24 00:16:00;;;;;;;;;;;;;;;22.93;42.85;99175.84;2066961;28;4115;-35
2021/01/24 00:17:01;;;;;;;;;;;;;;;22.99;42.74;99168.56;2068332;28;4504;-35
2021/01/24 00:18:02;;;;;;;;;;;;;;;22.90;42.92;99171.75;2067815;28;4136;-35
2021/01/24 00:19:03;;;;;;;;;;;;;;;22.89;42.93;99173.00;2065587;28;4079;-35
2021/01/24 00:20:03;;;;;;;;;;;;;;;22.92;42.96;99168.50;2066803;28;3972;-36
2021/01/24 00:21:04;;;;;;;;;;;;;;;22.98;42.77;99175.47;2067637;28;4034;-35
2021/01/24 00:22:05;;;;;;;;;;;;;;;23.00;42.71;99170.19;2067975;28;3874;-35
2021/01/24 00:23:06;;;;;;;;;;;;;;;23.03;42.57;99165.69;2065693;28;3930;-34
2021/01/24 00:24:06;;;;;;;;;;;;;;;23.07;42.56;99163.66;2068269;28;4042;-35
2021/01/24 00:25:07;;;;;;;;;;;;;;;23.03;42.54;99155.09;2066357;28;4163;-35
2021/01/24 00:26:08;;;;;;;;;;;;;;;23.02;42.68;99170.59;2068300;28;5158;-34
2021/01/24 00:27:09;;;;;;;;;;;;;;;23.03;42.65;99169.34;2068728;28;4047;-34
2021/01/24 00:28:10;;;;;;;;;;;;;;;23.03;42.83;99160.81;2068203;28;3878;-35
2021/01/24 00:29:10;;;;;;;;;;;;;;;23.00;42.77;99163.66;2068211;28;4313;-34
2021/01/24 00:30:11;;;;;;;;;;;;;;;23.04;42.71;99173.03;2067520;28;4056;-35
2021/01/24 00:31:12;;;;;;;;;;;;;;;23.02;42.81;99164.88;2066729;28;3944;-34
2021/01/24 00:32:13;;;;;;;;;;;;;;;23.06;42.73;99162.84;2065212;28;4099;-34
2021/01/24 00:33:14;;;;;;;;;;;;;;;23.05;42.79;99164.06;2067717;28;4030;-34
2021/01/24 00:34:14;;;;;;;;;;;;;;;23.05;42.82;99168.97;2067812;28;4062;-35
2021/01/24 00:35:15;;;;;;;;;;;;;;;23.02;42.94;99164.88;2065549;28;4015;-34
2021/01/24 00:36:16;;;;;;;;;;;;;;;23.03;43.01;99168.56;2066267;28;4104;-34
2021/01/24 00:37:16;;;;;;;;;;;;;;;22.99;43.00;99171.41;2066825;28;3936;-34
2021/01/24 00:38:17;;;;;;;;;;;;;;;23.01;42.90;99177.50;2067763;28;4070;-35
2021/01/24 00:39:18;;;;;;;;;;;;;;;23.00;42.85;99175.06;2066262;28;4224;-35
2021/01/24 00:40:19;;;;;;;;;;;;;;;23.01;43.10;99174.66;2066680;28;4204;-35
2021/01/24 00:41:19;;;;;;;;;;;;;;;23.00;43.01;99175.06;2067283;28;4062;-34
2021/01/24 00:42:20;;;;;;;;;;;;;;;22.94;43.14;99174.63;2067090;28;4024;-35
2021/01/24 00:43:21;;;;;;;;;;;;;;;22.93;43.07;99173.00;2065429;28;6088;-34
2021/01/24 00:44:22;;;;;;;;;;;;;;;22.90;43.25;99176.66;2067162;28;4060;-34
2021/01/24 00:45:22;;;;;;;;;;;;;;;22.91;43.16;99178.31;2066296;28;4065;-35
2021/01/24 00:46:23;;;;;;;;;;;;;;;22.92;43.30;99179.13;2064046;28;3950;-34
2021/01/24 00:47:24;;;;;;;;;;;;;;;22.93;43.41;99175.03;2067562;28;3896;-35
2021/01/24 00:48:25;;;;;;;;;;;;;;;22.91;43.23;99184.00;2067581;28;4075;-34
2021/01/24 00:49:26;;;;;;;;;;;;;;;22.92;43.29;99185.63;2066985;28;3903;-35
2021/01/24 00:50:26;;;;;;;;;;;;;;;22.95;43.32;99179.09;2067851;28;4105;-35
2021/01/24 00:51:27;;;;;;;;;;;;;;;22.94;43.15;99188.91;2067317;28;4035;-34
2021/01/24 00:52:28;;;;;;;;;;;;;;;22.97;43.24;99175.91;2066517;28;4232;-35
2021/01/24 00:53:28;;;;;;;;;;;;;;;22.98;43.31;99178.31;2066464;28;3904;-35
2021/01/24 00:54:29;;;;;;;;;;;;;;;22.99;43.27;99188.53;2066709;28;3958;-34
2021/01/24 00:55:30;;;;;;;;;;;;;;;22.97;43.33;99179.56;2066810;28;3954;-34
2021/01/24 00:56:31;;;;;;;;;;;;;;;22.96;43.16;99182.81;2066869;28;3884;-36
2021/01/24 00:57:32;;;;;;;;;;;;;;;22.98;43.16;99178.31;2068321;28;3853;-34
2021/01/24 00:58:33;;;;;;;;;;;;;;;22.98;43.25;99181.16;2065284;28;3900;-35
2021/01/24 00:59:34;;;;;;;;;;;;;;;23.00;43.21;99181.59;2067514;28;3897;-34
2021/01/24 01:00:34;;;;;;;;;;;;;;;23.00;43.31;99180.78;2068176;28;3821;-34
2021/01/24 01:01:35;;;;;;;;;;;;;;;23.04;43.35;99176.69;2065084;28;4025;-34
2021/01/24 01:02:36;;;;;;;;;;;;;;;23.03;43.29;99182.81;2067088;28;4087;-35
2021/01/24 01:03:37;;;;;;;;;;;;;;;22.98;43.33;99184.03;2067738;28;4030;-35
2021/01/24 01:04:38;;;;;;;;;;;;;;;23.01;43.28;99188.09;2067524;28;4016;-35
2021/01/24 01:05:38;;;;;;;;;;;;;;;22.97;43.45;99184.44;2066328;28;3982;-35
2021/01/24 01:06:39;;;;;;;;;;;;;;;22.94;43.46;99177.47;2068947;28;4042;-35
2021/01/24 01:07:40;;;;;;;;;;;;;;;22.87;43.57;99178.28;2068316;28;3842;-34
2021/01/24 01:08:41;;;;;;;;;;;;;;;22.89;43.71;99178.69;2066356;28;4047;-35
2021/01/24 01:09:41;;;;;;;;;;;;;;;22.84;43.58;99178.28;2067054;28;3913;-34
2021/01/24 01:10:42;;;;;;;;;;;;;;;22.85;43.65;99177.06;2064547;28;4064;-35
2021/01/24 01:11:43;;;;;;;;;;;;;;;22.83;43.70;99185.22;2068028;28;3884;-35
2021/01/24 01:12:43;;;;;;;;;;;;;;;22.84;43.58;99178.28;2069467;28;4013;-35
2021/01/24 01:13:44;;;;;;;;;;;;;;;22.84;43.65;99181.13;2067298;28;3980;-35
2021/01/24 01:14:45;;;;;;;;;;;;;;;22.82;43.70;99184.38;2066451;28;4001;-34
2021/01/24 01:15:46;;;;;;;;;;;;;;;22.82;43.52;99180.72;2068161;28;4022;-34
2021/01/24 01:16:46;;;;;;;;;;;;;;;22.82;43.60;99187.22;2068144;28;3840;-35
2021/01/24 01:17:47;;;;;;;;;;;;;;;22.83;43.51;99183.19;2068047;28;3783;-35
2021/01/24 01:18:48;;;;;;;;;;;;;;;22.82;43.56;99177.88;2059849;28;3996;-35
2021/01/24 01:19:49;;;;;;;;;;;;;;;22.83;43.49;99177.47;2060537;28;4828;-34
2021/01/24 01:20:50;;;;;;;;;;;;;;;22.89;43.53;99181.56;2069042;28;3918;-35
2021/01/24 01:21:50;;;;;;;;;;;;;;;22.89;43.48;99175.84;2067941;28;3905;-35
2021/01/24 01:22:51;;;;;;;;;;;;;;;22.85;43.38;99175.03;2069028;28;4097;-34
2021/01/24 01:23:52;;;;;;;;;;;;;;;22.94;43.43;99176.66;2067728;28;4036;-35
2021/01/24 01:24:52;;;;;;;;;;;;;;;22.90;43.48;99177.47;2066740;28;4055;-34
2021/01/24 01:25:53;;;;;;;;;;;;;;;22.96;43.38;99177.09;2068712;28;4258;-35
2021/01/24 01:26:54;;;;;;;;;;;;;;;22.95;43.22;99176.25;2068610;28;3926;-34
2021/01/24 01:27:55;;;;;;;;;;;;;;;22.97;43.40;99181.59;2068722;28;4132;-34
2021/01/24 01:28:55;;;;;;;;;;;;;;;23.00;43.41;99170.19;2068560;28;3926;-34
2021/01/24 01:29:56;;;;;;;;;;;;;;;22.98;43.10;99172.63;2068623;28;4024;-34
2021/01/24 01:30:57;;;;;;;;;;;;;;;22.94;43.31;99168.94;2069718;28;4051;-34
2021/01/24 01:31:57;;;;;;;;;;;;;;;22.92;43.43;99167.72;2068165;28;4097;-34
2021/01/24 01:32:58;;;;;;;;;;;;;;;22.89;43.33;99173.00;2068428;28;4067;-34
2021/01/24 01:33:59;;;;;;;;;;;;;;;22.92;43.40;99173.41;2066619;28;3957;-34
2021/01/24 01:35:00;;;;;;;;;;;;;;;22.89;43.60;99175.84;2067555;28;3912;-34
2021/01/24 01:36:01;;;;;;;;;;;;;;;22.91;43.58;99178.31;2066674;28;4058;-35
2021/01/24 01:37:01;;;;;;;;;;;;;;;22.90;43.65;99174.59;2068245;28;3920;-34
2021/01/24 01:38:02;;;;;;;;;;;;;;;22.89;43.52;99175.03;2067923;28;3913;-34
2021/01/24 01:39:03;;;;;;;;;;;;;;;22.93;43.63;99170.13;2068387;28;4093;-34
2021/01/24 01:40:04;;;;;;;;;;;;;;;22.92;43.61;99171.38;2068861;28;3882;-34
2021/01/24 01:41:04;;;;;;;;;;;;;;;22.87;43.87;99171.78;2067755;28;3895;-35
2021/01/24 01:42:05;;;;;;;;;;;;;;;22.86;43.83;99173.00;2067744;28;4049;-34
2021/01/24 01:43:06;;;;;;;;;;;;;;;22.89;43.65;99175.03;2069229;28;3886;-35
2021/01/24 01:44:06;;;;;;;;;;;;;;;22.90;43.60;99173.81;2067105;28;4065;-34
2021/01/24 01:45:07;;;;;;;;;;;;;;;22.75;43.35;99164.44;2066603;28;4023;-35
2021/01/24 01:46:09;;;;;;;;;;;;;;;22.52;44.37;99167.63;2068460;28;3877;-34
2021/01/24 01:47:09;;;;;;;;;;;;;;;22.65;44.10;99163.19;2068792;28;4114;-35
2021/01/24 01:48:10;;;;;;;;;;;;;;;22.82;43.86;99169.31;2067151;28;4048;-34
2021/01/24 01:49:11;;;;;;;;;;;;;;;22.94;43.68;99165.25;2067043;28;4048;-34
2021/01/24 01:50:12;;;;;;;;;;;;;;;22.98;44.00;99175.47;2069255;28;4132;-35
2021/01/24 01:51:13;;;;;;;;;;;;;;;23.03;43.60;99171.41;2067894;28;4129;-35
2021/01/24 01:52:13;;;;;;;;;;;;;;;23.03;43.61;99174.25;2069087;28;4041;-35
2021/01/24 01:53:15;;;;;;;;;;;;;;;23.00;43.42;99175.88;2067280;28;4468;-35
2021/01/24 01:54:16;;;;;;;;;;;;;;;22.96;43.87;99175.06;2069880;28;3904;-34
2021/01/24 01:55:17;;;;;;;;;;;;;;;22.96;43.86;99179.94;2066626;28;4041;-35
2021/01/24 01:56:17;;;;;;;;;;;;;;;22.96;43.78;99177.91;2069577;28;3882;-35
2021/01/24 01:57:18;;;;;;;;;;;;;;;22.95;43.79;99186.84;2069578;28;4177;-35
2021/01/24 01:58:19;;;;;;;;;;;;;;;22.93;43.74;99180.72;2068925;28;4056;-35
2021/01/24 01:59:20;;;;;;;;;;;;;;;22.91;43.84;99184.00;2068573;28;3905;-35
2021/01/24 02:00:21;;;;;;;;;;;;;;;22.88;43.75;99184.78;2068357;28;3863;-34
2021/01/24 02:01:21;;;;;;;;;;;;;;;22.89;43.88;99181.56;2069044;28;4059;-36
2021/01/24 02:02:22;;;;;;;;;;;;;;;22.89;43.89;99173.00;2068831;28;4147;-35
2021/01/24 02:03:23;;;;;;;;;;;;;;;22.86;43.99;99178.69;2067206;28;4053;-35
2021/01/24 02:04:24;;;;;;;;;;;;;;;22.84;43.80;99178.28;2068890;28;3902;-35
2021/01/24 02:05:25;;;;;;;;;;;;;;;22.81;44.00;99174.22;2067291;28;4328;-35
2021/01/24 02:06:26;;;;;;;;;;;;;;;22.82;43.79;99175.81;2069515;28;4037;-35
2021/01/24 02:07:26;;;;;;;;;;;;;;;22.80;44.03;99181.13;2066981;28;4047;-36
2021/01/24 02:08:27;;;;;;;;;;;;;;;22.76;44.15;99177.47;2068653;28;3921;-35
2021/01/24 02:09:28;;;;;;;;;;;;;;;22.78;44.27;99168.50;2067669;28;3885;-35
2021/01/24 02:10:29;;;;;;;;;;;;;;;22.78;44.26;99180.72;2068088;28;3876;-33
2021/01/24 02:11:30;;;;;;;;;;;;;;;22.78;43.97;99172.16;2068180;28;4800;-34
2021/01/24 02:12:31;;;;;;;;;;;;;;;22.79;44.27;99178.69;2068674;28;4034;-34
2021/01/24 02:13:32;;;;;;;;;;;;;;;22.79;44.33;99173.78;2068720;28;3817;-35
2021/01/24 02:14:33;;;;;;;;;;;;;;;22.80;44.18;99174.59;2068436;28;3896;-35
2021/01/24 02:15:33;;;;;;;;;;;;;;;22.81;44.18;99177.06;2067435;28;6217;-34
2021/01/24 02:16:34;;;;;;;;;;;;;;;22.78;44.36;99186.44;2067989;28;3851;-34
2021/01/24 02:17:35;;;;;;;;;;;;;;;22.79;44.33;99181.53;2068457;28;4042;-35
2021/01/24 02:18:36;;;;;;;;;;;;;;;22.76;44.35;99182.34;2068873;28;3890;-34
2021/01/24 02:19:36;;;;;;;;;;;;;;;22.78;44.26;99179.91;2065538;28;3926;-34
2021/01/24 02:20:37;;;;;;;;;;;;;;;22.80;44.39;99181.13;2068163;28;3885;-34
2021/01/24 02:21:38;;;;;;;;;;;;;;;22.81;44.31;99173.41;2068043;28;4237;-34
2021/01/24 02:22:38;;;;;;;;;;;;;;;22.80;44.59;99177.44;2069407;28;3995;-35
2021/01/24 02:23:39;;;;;;;;;;;;;;;22.82;44.36;99178.69;2068514;28;3884;-35
2021/01/24 02:24:40;;;;;;;;;;;;;;;22.82;44.30;99177.88;2066290;28;4065;-34
2021/01/24 02:25:41;;;;;;;;;;;;;;;22.82;44.29;99170.13;2066115;28;4054;-35
2021/01/24 02:26:41;;;;;;;;;;;;;;;22.84;44.08;99169.72;2066186;28;4061;-35
2021/01/24 02:27:42;;;;;;;;;;;;;;;22.84;43.98;99167.69;2069185;28;4008;-35
2021/01/24 02:28:43;;;;;;;;;;;;;;;22.83;44.12;99173.81;2074327;28;3878;-34
2021/01/24 02:29:43;;;;;;;;;;;;;;;22.85;44.09;99163.63;2074919;28;3864;-35
2021/01/24 02:30:44;;;;;;;;;;;;;;;22.80;44.17;99166.03;2076255;28;3864;-34
2021/01/24 02:31:45;;;;;;;;;;;;;;;22.78;44.07;99166.47;2074810;28;4083;-34
2021/01/24 02:32:46;;;;;;;;;;;;;;;22.76;44.21;99173.78;2074058;28;4830;-34
2021/01/24 02:33:47;;;;;;;;;;;;;;;22.76;44.12;99166.06;2076021;28;4038;-36
2021/01/24 02:34:47;;;;;;;;;;;;;;;22.76;44.16;99163.19;2075081;28;4097;-34
2021/01/24 02:35:48;;;;;;;;;;;;;;;22.77;44.24;99164.00;2076612;28;3857;-34
2021/01/24 02:36:49;;;;;;;;;;;;;;;22.76;44.24;99165.25;2076691;28;4958;-34
2021/01/24 02:37:50;;;;;;;;;;;;;;;22.70;44.36;99161.97;2076631;28;4206;-34
2021/01/24 02:38:50;;;;;;;;;;;;;;;22.74;44.47;99161.97;2075506;28;3977;-34
2021/01/24 02:39:51;;;;;;;;;;;;;;;22.79;44.69;99164.44;2076694;28;4066;-34
2021/01/24 02:40:52;;;;;;;;;;;;;;;22.77;44.60;99167.72;2075971;28;4078;-34
2021/01/24 02:41:53;;;;;;;;;;;;;;;22.81;44.72;99167.69;2077636;28;4119;-34
2021/01/24 02:42:53;;;;;;;;;;;;;;;22.80;44.76;99166.03;2077095;28;3902;-34
2021/01/24 02:43:54;;;;;;;;;;;;;;;22.77;44.98;99164.84;2078107;28;4091;-35
2021/01/24 02:44:55;;;;;;;;;;;;;;;22.81;44.88;99167.69;2075316;28;4239;-34
2021/01/24 02:45:55;;;;;;;;;;;;;;;22.75;44.84;99163.63;2076058;28;3894;-35
2021/01/24 02:46:56;;;;;;;;;;;;;;;22.75;44.95;99167.28;2076621;28;4556;-33
2021/01/24 02:47:57;;;;;;;;;;;;;;;22.76;44.72;99160.34;2077723;28;3926;-34
2021/01/24 02:48:58;;;;;;;;;;;;;;;22.79;44.71;99162.38;2075623;28;4070;-34
2021/01/24 02:49:59;;;;;;;;;;;;;;;22.78;45.02;99159.97;2075089;28;4062;-35
2021/01/24 02:50:59;;;;;;;;;;;;;;;22.84;44.96;99158.31;2077198;28;4058;-34
2021/01/24 02:52:00;;;;;;;;;;;;;;;22.82;45.19;99157.91;2076171;28;3960;-35
2021/01/24 02:53:01;;;;;;;;;;;;;;;22.81;45.18;99151.41;2075705;28;3900;-35
2021/01/24 02:54:02;;;;;;;;;;;;;;;22.84;44.91;99155.47;2076650;28;4203;-34
2021/01/24 02:55:02;;;;;;;;;;;;;;;22.85;44.99;99151.41;2075398;28;4062;-34
2021/01/24 02:56:04;;;;;;;;;;;;;;;22.83;45.13;99148.97;2076472;28;3905;-35
2021/01/24 02:57:04;;;;;;;;;;;;;;;22.85;45.01;99151.41;2077037;28;4029;-34
2021/01/24 02:58:05;;;;;;;;;;;;;;;22.83;44.84;99151.00;2076998;28;4251;-34
2021/01/24 02:59:06;;;;;;;;;;;;;;;22.81;44.98;99153.44;2077375;28;4075;-34
2021/01/24 03:00:08;;;;;;;;;;;;;;;22.80;44.95;99148.94;2076643;28;3886;-35
2021/01/24 03:01:09;;;;;;;;;;;;;;;22.80;45.25;99151.78;2075692;28;4035;-34
2021/01/24 03:02:10;;;;;;;;;;;;;;;22.83;44.93;99151.81;2076048;28;4161;-34
2021/01/24 03:03:11;;;;;;;;;;;;;;;22.88;44.87;99156.28;2076532;28;3883;-35
2021/01/24 03:04:11;;;;;;;;;;;;;;;22.94;45.40;99142.44;2076960;28;3890;-35
2021/01/24 03:05:12;;;;;;;;;;;;;;;22.56;44.85;99145.69;2074341;28;3894;-35
2021/01/24 03:06:13;;;;;;;;;;;;;;;22.13;44.33;99142.69;2076219;28;4034;-35
2021/01/24 03:07:14;;;;;;;;;;;;;;;22.18;46.50;99142.34;2075954;28;3903;-35
2021/01/24 03:08:15;;;;;;;;;;;;;;;22.38;45.73;99145.63;2074993;28;3912;-35
2021/01/24 03:09:16;;;;;;;;;;;;;;;22.50;45.12;99140.78;2076098;28;3922;-35
2021/01/24 03:10:16;;;;;;;;;;;;;;;22.57;45.09;99144.44;2072637;28;4110;-34
2021/01/24 03:11:17;;;;;;;;;;;;;;;22.64;45.01;99147.31;2075551;28;4027;-34
2021/01/24 03:12:18;;;;;;;;;;;;;;;22.67;45.04;99151.41;2074703;28;3899;-34
2021/01/24 03:13:19;;;;;;;;;;;;;;;22.65;45.31;99145.28;2075380;28;3928;-35
2021/01/24 03:14:20;;;;;;;;;;;;;;;22.65;45.37;99145.28;2075410;28;4085;-34
2021/01/24 03:15:20;;;;;;;;;;;;;;;22.64;45.31;99150.16;2074536;28;4037;-34
2021/01/24 03:16:21;;;;;;;;;;;;;;;22.65;45.09;99140.38;2075203;28;3907;-34
2021/01/24 03:17:22;;;;;;;;;;;;;;;22.65;45.01;99142.44;2076073;28;3889;-34
2021/01/24 03:18:23;;;;;;;;;;;;;;;22.59;45.19;99141.22;2075971;28;4045;-34
2021/01/24 03:19:24;;;;;;;;;;;;;;;22.62;45.13;99134.69;2073907;28;4038;-34
2021/01/24 03:20:24;;;;;;;;;;;;;;;22.58;45.06;99136.72;2074088;28;4194;-33
2021/01/24 03:21:25;;;;;;;;;;;;;;;22.56;45.13;99139.16;2075871;28;3903;-34
2021/01/24 03:22:26;;;;;;;;;;;;;;;22.58;45.13;99145.28;2077293;28;3880;-35
2021/01/24 03:23:26;;;;;;;;;;;;;;;22.58;45.15;99133.88;2076212;28;3978;-35
2021/01/24 03:24:27;;;;;;;;;;;;;;;22.57;45.68;99135.09;2073624;28;4084;-35
2021/01/24 03:25:28;;;;;;;;;;;;;;;22.57;45.63;99135.91;2074386;28;4057;-34
2021/01/24 03:26:29;;;;;;;;;;;;;;;22.57;45.47;99135.09;2075401;28;4058;-34
2021/01/24 03:27:29;;;;;;;;;;;;;;;22.58;45.19;99136.72;2075033;28;4050;-34
2021/01/24 03:28:30;;;;;;;;;;;;;;;22.56;45.66;99136.31;2075584;28;3896;-34
2021/01/24 03:29:31;;;;;;;;;;;;;;;22.54;45.80;99133.06;2076115;28;4786;-34
2021/01/24 03:30:32;;;;;;;;;;;;;;;22.51;45.72;99131.81;2076496;28;3890;-34
2021/01/24 03:31:33;;;;;;;;;;;;;;;22.57;45.53;99133.03;2075858;28;4038;-34
2021/01/24 03:32:34;;;;;;;;;;;;;;;22.59;45.55;99132.66;2075676;28;3924;-34
2021/01/24 03:33:35;;;;;;;;;;;;;;;22.58;45.38;99131.84;2075937;28;4063;-34
2021/01/24 03:34:36;;;;;;;;;;;;;;;22.59;45.55;99126.94;2075943;28;3986;-34
2021/01/24 03:35:36;;;;;;;;;;;;;;;22.58;45.53;99129.00;2074880;28;4018;-34
2021/01/24 03:36:37;;;;;;;;;;;;;;;22.58;45.50;99131.03;2076165;28;4010;-34
2021/01/24 03:37:38;;;;;;;;;;;;;;;22.56;45.35;99128.56;2076933;28;3996;-34
2021/01/24 03:38:39;;;;;;;;;;;;;;;22.60;45.41;99131.41;2074251;28;4124;-34
2021/01/24 03:39:39;;;;;;;;;;;;;;;22.61;45.36;99128.19;2074480;28;4077;-34
2021/01/24 03:40:40;;;;;;;;;;;;;;;22.59;45.25;99127.75;2076621;28;3879;-34
2021/01/24 03:41:41;;;;;;;;;;;;;;;22.62;45.07;99124.09;2076693;28;3858;-34
2021/01/24 03:42:41;;;;;;;;;;;;;;;22.61;45.07;99131.03;2075770;28;3900;-34
2021/01/24 03:43:42;;;;;;;;;;;;;;;22.63;45.04;99130.59;2075892;28;3829;-33
2021/01/24 03:44:43;;;;;;;;;;;;;;;22.60;44.99;99131.41;2075673;28;3867;-33
2021/01/24 03:45:44;;;;;;;;;;;;;;;22.61;45.03;99128.19;2073477;28;4040;-34
2021/01/24 03:46:45;;;;;;;;;;;;;;;22.59;45.14;99136.31;2073227;28;3836;-34
2021/01/24 03:47:45;;;;;;;;;;;;;;;22.61;44.98;99131.03;2071386;28;4083;-33
2021/01/24 03:48:46;;;;;;;;;;;;;;;22.62;44.96;99137.53;2076113;28;4011;-34
2021/01/24 03:49:47;;;;;;;;;;;;;;;22.62;44.92;99135.50;2076224;28;3973;-33
2021/01/24 03:50:48;;;;;;;;;;;;;;;22.64;44.98;99135.91;2074552;28;4027;-33
2021/01/24 03:51:49;;;;;;;;;;;;;;;22.64;44.98;99135.09;2075020;28;4041;-34
2021/01/24 03:52:49;;;;;;;;;;;;;;;22.64;45.03;99135.09;2076515;28;4764;-33
2021/01/24 03:53:50;;;;;;;;;;;;;;;22.64;44.87;99140.81;2074566;28;3900;-34
2021/01/24 03:54:51;;;;;;;;;;;;;;;22.66;44.73;99135.50;2074070;28;4058;-34
2021/01/24 03:55:52;;;;;;;;;;;;;;;22.67;44.76;99140.00;2075093;28;4113;-34
2021/01/24 03:56:52;;;;;;;;;;;;;;;22.70;44.71;99142.03;2076442;28;4115;-34
2021/01/24 03:57:53;;;;;;;;;;;;;;;22.63;44.75;99142.00;2075394;28;4052;-34
2021/01/24 03:58:54;;;;;;;;;;;;;;;22.65;44.96;99137.53;2076767;28;3918;-34
2021/01/24 03:59:54;;;;;;;;;;;;;;;22.66;44.80;99136.34;2074999;28;4130;-34
2021/01/24 04:00:55;;;;;;;;;;;;;;;22.64;44.64;99137.97;2076682;28;4219;-34
2021/01/24 04:01:56;;;;;;;;;;;;;;;22.65;44.89;99136.72;2071366;28;4322;-34
2021/01/24 04:02:57;;;;;;;;;;;;;;;22.67;44.76;99137.13;2076529;28;3904;-34
2021/01/24 04:03:58;;;;;;;;;;;;;;;22.65;44.83;99128.97;2075108;28;4078;-34
2021/01/24 04:04:58;;;;;;;;;;;;;;;22.70;44.80;99135.53;2074337;28;3964;-34
2021/01/24 04:05:59;;;;;;;;;;;;;;;22.67;44.79;99132.25;2074183;28;4082;-33
2021/01/24 04:07:00;;;;;;;;;;;;;;;22.66;44.75;99135.50;2073519;28;4087;-34
2021/01/24 04:08:01;;;;;;;;;;;;;;;22.66;44.75;99133.47;2076223;28;3935;-33
2021/01/24 04:09:01;;;;;;;;;;;;;;;22.64;44.65;99135.91;2076137;28;4117;-34
2021/01/24 04:10:02;;;;;;;;;;;;;;;22.64;44.65;99137.97;2074140;28;4179;-34
2021/01/24 04:11:03;;;;;;;;;;;;;;;22.65;44.72;99136.72;2076138;28;4076;-34
2021/01/24 04:12:03;;;;;;;;;;;;;;;22.68;44.99;99141.59;2075501;28;4063;-34
2021/01/24 04:13:04;;;;;;;;;;;;;;;22.66;44.80;99130.63;2076736;28;3902;-34
2021/01/24 04:14:05;;;;;;;;;;;;;;;22.63;44.85;99134.28;2075737;28;3909;-34
2021/01/24 04:15:05;;;;;;;;;;;;;;;22.59;44.80;99136.31;2074779;28;4051;-34
2021/01/24 04:16:07;;;;;;;;;;;;;;;22.59;45.12;99133.47;2074207;28;4071;-34
2021/01/24 04:17:07;;;;;;;;;;;;;;;22.61;44.90;99138.78;2074776;28;4076;-34
2021/01/24 04:18:08;;;;;;;;;;;;;;;22.58;45.00;99131.84;2073079;28;4144;-35
2021/01/24 04:19:09;;;;;;;;;;;;;;;22.58;45.01;99136.72;2075769;28;3975;-34
2021/01/24 04:20:10;;;;;;;;;;;;;;;22.58;44.88;99133.88;2075416;28;3975;-34
2021/01/24 04:21:11;;;;;;;;;;;;;;;22.60;45.09;99134.28;2074594;28;4071;-34
2021/01/24 04:22:11;;;;;;;;;;;;;;;22.60;44.76;99132.22;2074973;28;3888;-34
2021/01/24 04:23:12;;;;;;;;;;;;;;;22.60;44.67;99135.09;2075136;28;3900;-34
2021/01/24 04:24:13;;;;;;;;;;;;;;;22.59;44.90;99136.31;2076688;28;4058;-34
2021/01/24 04:25:15;;;;;;;;;;;;;;;22.59;44.86;99127.75;2075128;28;4068;-34
2021/01/24 04:26:16;;;;;;;;;;;;;;;22.62;44.64;99135.50;2073722;28;3967;-35
2021/01/24 04:27:17;;;;;;;;;;;;;;;22.64;44.63;99129.41;2076763;28;4227;-35
2021/01/24 04:28:17;;;;;;;;;;;;;;;22.65;44.73;99134.69;2074540;28;3963;-35
2021/01/24 04:29:18;;;;;;;;;;;;;;;22.66;44.56;99141.19;2075871;28;4045;-35
2021/01/24 04:30:19;;;;;;;;;;;;;;;22.69;44.47;99126.16;2076462;28;3967;-34
2021/01/24 04:31:20;;;;;;;;;;;;;;;22.70;44.96;99133.47;2073943;28;3893;-34
2021/01/24 04:32:20;;;;;;;;;;;;;;;22.69;44.90;99134.72;2074348;28;6350;-33
2021/01/24 04:33:21;;;;;;;;;;;;;;;22.71;44.80;99132.25;2074744;28;3894;-34
2021/01/24 04:34:22;;;;;;;;;;;;;;;22.74;44.75;99125.72;2072851;28;3903;-33
2021/01/24 04:35:23;;;;;;;;;;;;;;;22.75;44.63;99127.38;2075496;28;4062;-34
2021/01/24 04:36:24;;;;;;;;;;;;;;;22.76;44.46;99126.13;2074783;28;4192;-34
2021/01/24 04:37:24;;;;;;;;;;;;;;;22.77;44.57;99124.09;2073935;28;4149;-34
2021/01/24 04:38:25;;;;;;;;;;;;;;;22.75;44.56;99112.31;2076575;28;4157;-34
2021/01/24 04:39:26;;;;;;;;;;;;;;;22.78;44.46;99117.19;2075856;28;4030;-34
2021/01/24 04:40:26;;;;;;;;;;;;;;;22.78;44.42;99117.19;2076390;28;4074;-34
2021/01/24 04:41:27;;;;;;;;;;;;;;;22.77;44.48;99124.09;2076339;28;4145;-34
2021/01/24 04:42:28;;;;;;;;;;;;;;;22.80;44.42;99109.88;2077551;28;4016;-34
2021/01/24 04:43:29;;;;;;;;;;;;;;;22.78;44.64;99117.19;2077454;28;3864;-34
2021/01/24 04:44:29;;;;;;;;;;;;;;;22.76;44.57;99111.88;2076824;28;4116;-33
2021/01/24 04:45:30;;;;;;;;;;;;;;;22.80;44.38;99106.19;2077576;28;4291;-35
2021/01/24 04:46:31;;;;;;;;;;;;;;;22.80;44.46;99106.19;2077650;28;4012;-34
2021/01/24 04:47:32;;;;;;;;;;;;;;;22.78;44.38;99108.66;2075097;28;3896;-34
2021/01/24 04:48:33;;;;;;;;;;;;;;;22.79;44.52;99107.41;2077035;28;4160;-34
2021/01/24 04:49:34;;;;;;;;;;;;;;;22.80;44.40;99106.19;2076749;28;4028;-34
2021/01/24 04:50:34;;;;;;;;;;;;;;;22.80;44.39;99109.03;2076955;28;3884;-34
2021/01/24 04:51:35;;;;;;;;;;;;;;;22.82;44.41;99100.88;2075455;28;4171;-34
2021/01/24 04:52:36;;;;;;;;;;;;;;;22.81;44.54;99104.97;2077863;28;4243;-34
2021/01/24 04:53:36;;;;;;;;;;;;;;;22.80;44.61;99098.47;2077170;28;3842;-34
2021/01/24 04:54:37;;;;;;;;;;;;;;;22.81;44.50;99099.28;2076735;28;4043;-34
2021/01/24 04:55:38;;;;;;;;;;;;;;;22.80;44.69;99094.78;2068271;28;4037;-34
2021/01/24 04:56:39;;;;;;;;;;;;;;;22.77;44.62;99095.59;2068974;28;3878;-34
2021/01/24 04:57:39;;;;;;;;;;;;;;;22.78;44.85;99091.53;2077381;28;4006;-34
2021/01/24 04:58:40;;;;;;;;;;;;;;;22.77;44.89;99092.75;2077998;28;4194;-34
2021/01/24 04:59:41;;;;;;;;;;;;;;;22.76;44.81;99096.81;2077224;28;3902;-34
2021/01/24 05:00:42;;;;;;;;;;;;;;;22.78;44.80;99094.38;2077016;28;4049;-33
2021/01/24 05:01:42;;;;;;;;;;;;;;;22.78;44.72;99097.25;2076147;28;3977;-34
2021/01/24 05:02:47;;;;;;;;;;;;;;;22.76;44.89;99094.78;2078312;28;4138;-34
2021/01/24 05:03:48;;;;;;;;;;;;;;;22.75;44.77;99100.91;2076264;28;3997;-35
2021/01/24 05:04:49;;;;;;;;;;;;;;;22.74;44.96;99097.22;2076379;28;3764;-33
2021/01/24 05:05:49;;;;;;;;;;;;;;;22.78;44.61;99100.09;2077510;28;4993;-33
2021/01/24 05:06:50;;;;;;;;;;;;;;;22.78;44.76;99100.09;2077255;28;4181;-34
2021/01/24 05:07:51;;;;;;;;;;;;;;;22.78;44.71;99092.34;2075604;28;4379;-34
2021/01/24 05:08:52;;;;;;;;;;;;;;;22.75;44.89;99093.16;2075881;28;4131;-33
2021/01/24 05:09:53;;;;;;;;;;;;;;;22.74;44.84;99090.72;2076796;28;3937;-34
2021/01/24 05:10:55;;;;;;;;;;;;;;;22.76;44.85;99088.28;2073574;28;3824;-34
2021/01/24 05:11:55;;;;;;;;;;;;;;;22.75;44.86;99090.31;2076294;28;3884;-34
2021/01/24 05:12:56;;;;;;;;;;;;;;;22.77;44.82;99081.34;2077299;28;4033;-34
2021/01/24 05:13:57;;;;;;;;;;;;;;;22.73;44.81;99086.25;2076988;28;3962;-34
2021/01/24 05:14:58;;;;;;;;;;;;;;;22.72;44.87;99088.28;2076944;28;4057;-33
2021/01/24 05:15:59;;;;;;;;;;;;;;;22.71;44.96;99089.47;2078002;28;4071;-34
2021/01/24 05:17:00;;;;;;;;;;;;;;;22.71;44.99;99083.78;2076896;28;3892;-34
2021/01/24 05:18:01;;;;;;;;;;;;;;;22.70;45.15;99085.00;2076548;28;5105;-35
2021/01/24 05:19:02;;;;;;;;;;;;;;;22.68;45.17;99084.59;2076745;28;4064;-34
2021/01/24 05:20:02;;;;;;;;;;;;;;;22.74;45.09;99085.81;2077196;28;4703;-33
2021/01/24 05:21:03;;;;;;;;;;;;;;;22.75;44.91;99080.94;2075362;28;4091;-34